Time;durP1;ratioP1;P1;durP2;ratioP2;P2;SDS_P1;SDS_P2;PMS_P1;PMS_P2;Temp;Humidity;BMP_temperature;BMP_pressure;BME280_temperature;BME280_humidity;BME280_pressure;Samples;Min_cycle;Max_cycle;Signal;HPM_P1;HPM_P2
2023/01/18 00:01:07;;;;;;;0.10;0.10;;;14.20;68.40;;;;;;5026312;28;20184;-70
2023/01/18 00:03:34;;;;;;;0.28;0.28;;;14.30;68.50;;;;;;5018445;28;20188;-70
2023/01/18 00:06:01;;;;;;;0.17;0.17;;;14.30;68.30;;;;;;5024259;28;20267;-70
2023/01/18 00:08:28;;;;;;;0.20;0.20;;;14.10;68.20;;;;;;5023759;28;20684;-70
2023/01/18 00:11:00;;;;;;;0.08;0.08;;;14.10;68.20;;;;;;5021529;28;20275;-70
2023/01/18 00:13:26;;;;;;;0.20;0.20;;;14.10;68.10;;;;;;5025708;28;20188;-70
2023/01/18 00:15:52;;;;;;;0.20;0.20;;;14.20;68.20;;;;;;5026935;28;20628;-70
2023/01/18 00:18:18;;;;;;;0.00;0.00;;;14.20;67.80;;;;;;5027820;28;20184;-70
2023/01/18 00:20:44;;;;;;;4.40;0.30;;;;;;;;;;5024287;28;20185;-71
2023/01/18 00:23:09;;;;;;;0.10;0.10;;;14.20;68.00;;;;;;5019646;28;20805;-70
2023/01/18 00:25:35;;;;;;;0.50;0.30;;;14.20;68.10;;;;;;5030223;28;20322;-71
2023/01/18 00:28:01;;;;;;;0.20;0.20;;;14.30;68.10;;;;;;5024205;28;20208;-70
2023/01/18 00:30:28;;;;;;;0.40;0.20;;;14.30;68.40;;;;;;5026929;28;20760;-70
2023/01/18 00:32:56;;;;;;;1.00;0.10;;;14.30;68.40;;;;;;5043359;28;20609;-70
2023/01/18 00:35:22;;;;;;;0.20;0.20;;;14.30;68.20;;;;;;5024031;28;20646;-70
2023/01/18 00:37:50;;;;;;;0.10;0.10;;;14.40;68.20;;;;;;5030176;28;20180;-70
2023/01/18 00:40:16;;;;;;;0.10;0.10;;;14.40;68.20;;;;;;5029940;28;20180;-70
2023/01/18 00:45:27;;;;;;;0.10;0.10;;;14.30;67.80;;;;;;5023804;28;20199;-70
2023/01/18 00:47:52;;;;;;;0.10;0.10;;;14.40;68.00;;;;;;5035204;28;20733;-70
2023/01/18 00:50:19;;;;;;;0.38;0.10;;;14.40;68.20;;;;;;5026631;28;20307;-70
2023/01/18 00:52:46;;;;;;;0.10;0.10;;;14.40;68.00;;;;;;5029188;28;20180;-70
2023/01/18 00:55:13;;;;;;;0.80;0.20;;;14.50;67.80;;;;;;5028451;28;20712;-70
2023/01/18 00:57:39;;;;;;;0.10;0.10;;;14.50;68.00;;;;;;5025365;28;20283;-70
2023/01/18 01:00:10;;;;;;;0.32;0.10;;;14.40;67.80;;;;;;5029752;28;20184;-71
2023/01/18 01:02:40;;;;;;;0.25;0.10;;;14.30;67.80;;;;;;5025780;28;20192;-70
2023/01/18 01:08:00;;;;;;;0.22;0.17;;;14.40;68.00;;;;;;5039822;28;20202;-71
2023/01/18 01:10:25;;;;;;;0.10;0.10;;;14.40;68.00;;;;;;5027737;28;20459;-70
2023/01/18 01:26:33;;;;;;;0.40;0.25;;;14.50;68.20;;;;;;5029206;28;20713;-71
2023/01/18 01:28:59;;;;;;;0.10;0.10;;;14.40;68.00;;;;;;5032192;28;20215;-71
2023/01/18 01:31:24;;;;;;;0.10;0.10;;;14.40;68.30;;;;;;5027673;28;20184;-71
2023/01/18 01:33:51;;;;;;;0.10;0.10;;;14.40;68.30;;;;;;5028245;28;20188;-71
2023/01/18 01:36:19;;;;;;;2.92;0.22;;;14.40;68.30;;;;;;5026701;28;20258;-71
2023/01/18 01:38:45;;;;;;;0.20;0.15;;;14.40;68.20;;;;;;5028394;28;20609;-72
2023/01/18 01:41:24;;;;;;;0.63;0.10;;;14.50;68.20;;;;;;5038990;28;20183;-72
2023/01/18 01:43:52;;;;;;;0.10;0.10;;;14.40;67.80;;;;;;5030146;28;20200;-71
2023/01/18 01:46:20;;;;;;;0.10;0.10;;;14.40;67.80;;;;;;5028351;28;21017;-71
2023/01/18 01:48:47;;;;;;;0.10;0.10;;;14.50;67.80;;;;;;5027490;28;20223;-71
2023/01/18 01:51:18;;;;;;;0.13;0.13;;;14.50;67.80;;;;;;5027556;28;20278;-71
2023/01/18 01:53:45;;;;;;;0.00;0.00;;;14.50;67.60;;;;;;5027457;28;20308;-72
2023/01/18 01:56:11;;;;;;;0.10;0.10;;;14.50;67.60;;;;;;5027024;28;20201;-72
2023/01/18 01:58:38;;;;;;;0.20;0.20;;;14.50;67.20;;;;;;5025355;28;20204;-72
2023/01/18 02:01:04;;;;;;;1.70;0.40;;;14.50;67.20;;;;;;5027473;28;20194;-72
2023/01/18 02:03:30;;;;;;;0.10;0.10;;;14.50;67.30;;;;;;5027312;28;20188;-72
2023/01/18 02:06:15;;;;;;;0.90;0.13;;;14.50;67.30;;;;;;5029387;28;20188;-72
2023/01/18 02:08:43;;;;;;;1.15;0.17;;;14.50;67.50;;;;;;5033707;28;20214;-72
2023/01/18 02:11:08;;;;;;;1.45;0.30;;;14.50;67.50;;;;;;5025681;28;20196;-72
2023/01/18 02:13:34;;;;;;;0.93;0.20;;;14.50;67.40;;;;;;5031974;28;20199;-72
2023/01/18 02:16:09;;;;;;;0.10;0.10;;;14.50;67.80;;;;;;5029083;28;20184;-73
2023/01/18 02:19:07;;;;;;;0.52;0.20;;;14.60;67.50;;;;;;5027200;28;20176;-72
2023/01/18 02:21:39;;;;;;;0.10;0.10;;;14.60;67.40;;;;;;4988764;28;20280;-71
2023/01/18 02:24:19;;;;;;;0.30;0.13;;;14.60;67.60;;;;;;4987597;28;20201;-73
2023/01/18 02:27:02;;;;;;;1.95;0.10;;;14.40;67.60;;;;;;4989345;28;20185;-73
2023/01/18 02:29:46;;;;;;;0.10;0.10;;;14.40;67.60;;;;;;4984571;28;20229;-74
2023/01/18 02:32:16;;;;;;;2.63;0.22;;;14.50;67.80;;;;;;4987925;28;20237;-71
2023/01/18 02:34:46;;;;;;;0.28;0.20;;;14.50;67.80;;;;;;4995697;28;20185;-72
2023/01/18 02:37:39;;;;;;;1.17;0.20;;;14.50;67.60;;;;;;4980486;28;20971;-72
2023/01/18 02:40:18;;;;;;;0.32;0.30;;;14.50;67.60;;;;;;4975337;28;20195;-73
2023/01/18 02:48:22;;;;;;;0.90;0.20;;;14.60;67.80;;;;;;4979603;28;20304;-73
2023/01/18 02:50:48;;;;;;;0.10;0.10;;;14.50;67.60;;;;;;4990341;28;20206;-71
2023/01/18 02:53:15;;;;;;;1.08;0.10;;;14.40;67.80;;;;;;4983920;28;20186;-72
2023/01/18 02:55:55;;;;;;;0.10;0.10;;;14.40;67.60;;;;;;4980354;28;20197;-74
2023/01/18 02:58:33;;;;;;;0.13;0.13;;;14.50;68.00;;;;;;5028675;28;20998;-70
2023/01/18 03:01:07;;;;;;;0.43;0.10;;;14.40;67.80;;;;;;5027768;28;20187;-70
2023/01/18 03:03:34;;;;;;;0.10;0.10;;;14.50;67.60;;;;;;5034619;28;20258;-71
2023/01/18 03:06:02;;;;;;;1.65;0.22;;;14.50;67.80;;;;;;5022985;28;20179;-73
2023/01/18 03:08:39;;;;;;;1.45;0.20;;;14.50;67.60;;;;;;5037240;28;20186;-73
2023/01/18 03:11:13;;;;;;;4.30;0.28;;;14.40;67.40;;;;;;5021832;28;20211;-73
2023/01/18 03:14:00;;;;;;;1.02;0.10;;;14.40;67.60;;;;;;5037595;28;20188;-73
2023/01/18 03:16:39;;;;;;;0.28;0.10;;;14.50;67.40;;;;;;5030442;28;20664;-71
2023/01/18 03:22:03;;;;;;;1.65;0.30;;;14.60;67.30;;;;;;5021884;28;20191;-73
2023/01/18 03:24:30;;;;;;;0.10;0.10;;;14.60;67.40;;;;;;5023529;28;20187;-72
2023/01/18 03:35:18;;;;;;;1.90;0.20;;;14.40;67.60;;;;;;5025198;28;20259;-72
2023/01/18 03:37:46;;;;;;;0.20;0.15;;;14.50;67.30;;;;;;5024578;28;20207;-72
2023/01/18 03:40:16;;;;;;;0.10;0.10;;;14.40;67.20;;;;;;5025792;28;20185;-73
2023/01/18 03:42:47;;;;;;;0.63;0.20;;;14.50;67.40;;;;;;5024533;28;20181;-71
2023/01/18 03:45:37;;;;;;;0.17;0.10;;;14.50;67.40;;;;;;5041959;28;20598;-71
2023/01/18 03:48:04;;;;;;;0.38;0.15;;;14.30;67.60;;;;;;5056270;28;20199;-71
2023/01/18 03:50:59;;;;;;;2.08;0.17;;;14.40;67.40;;;;;;5024265;28;20235;-70
2023/01/18 03:53:33;;;;;;;0.43;0.25;;;14.40;67.60;;;;;;5024351;28;20179;-71
2023/01/18 03:56:25;;;;;;;0.25;0.10;;;14.30;67.20;;;;;;5033633;28;20187;-71
2023/01/18 03:58:54;;;;;;;2.92;0.20;;;14.30;67.10;;;;;;5024235;28;20211;-71
2023/01/18 04:01:20;;;;;;;0.08;0.08;;;14.30;67.00;;;;;;5029812;28;20180;-71
2023/01/18 04:03:46;;;;;;;2.28;0.20;;;14.30;67.00;;;;;;5021913;28;20191;-71
2023/01/18 04:06:11;;;;;;;0.45;0.15;;;14.40;67.00;;;;;;5022729;28;20181;-72
2023/01/18 04:08:37;;;;;;;0.10;0.10;;;;;;;;;;5024546;28;20180;-71
2023/01/18 04:11:03;;;;;;;0.10;0.10;;;14.40;67.00;;;;;;5022823;28;20259;-71
2023/01/18 04:13:29;;;;;;;0.10;0.10;;;;;;;;;;5023252;28;20314;-71
2023/01/18 04:15:55;;;;;;;0.30;0.22;;;14.50;66.80;;;;;;5030193;28;20282;-71
2023/01/18 04:18:20;;;;;;;0.20;0.10;;;14.50;66.90;;;;;;5023593;28;20196;-71
2023/01/18 04:20:47;;;;;;;0.10;0.10;;;14.50;67.00;;;;;;5017991;28;20194;-71
2023/01/18 04:23:13;;;;;;;2.45;0.25;;;14.50;67.10;;;;;;5026823;28;20180;-71
2023/01/18 04:25:39;;;;;;;1.55;0.28;;;14.40;66.50;;;;;;5027475;28;20180;-71
2023/01/18 04:28:06;;;;;;;5.10;0.55;;;14.40;66.90;;;;;;5016476;28;20183;-71
2023/01/18 04:30:32;;;;;;;1.42;0.20;;;14.40;66.90;;;;;;5026673;28;20208;-72
2023/01/18 04:32:57;;;;;;;2.95;0.17;;;14.40;66.90;;;;;;5023092;28;20237;-74
2023/01/18 04:35:23;;;;;;;0.68;0.10;;;14.40;66.70;;;;;;5016291;28;21179;-72
2023/01/18 04:37:52;;;;;;;0.22;0.10;;;14.40;66.90;;;;;;5017913;28;20188;-71
2023/01/18 04:40:17;;;;;;;3.92;0.28;;;14.40;66.80;;;;;;5022981;28;20196;-72
2023/01/18 04:42:43;;;;;;;4.43;0.38;;;14.50;66.80;;;;;;5023830;28;20263;-72
2023/01/18 04:45:12;;;;;;;1.80;0.30;;;14.50;66.90;;;;;;5024193;28;20803;-72
2023/01/18 04:47:38;;;;;;;0.82;0.30;;;14.50;66.90;;;;;;5032973;28;20206;-72
2023/01/18 04:50:06;;;;;;;2.30;0.30;;;14.50;66.70;;;;;;5022658;28;20227;-71
2023/01/18 04:52:32;;;;;;;0.15;0.15;;;14.40;66.80;;;;;;5026503;28;20274;-72
2023/01/18 04:54:58;;;;;;;0.10;0.10;;;14.40;67.10;;;;;;5028581;28;20279;-72
2023/01/18 04:57:23;;;;;;;0.75;0.17;;;14.50;66.90;;;;;;5023677;28;20183;-72
2023/01/18 04:59:49;;;;;;;8.07;0.13;;;14.40;67.00;;;;;;5019285;28;20194;-72
2023/01/18 05:02:14;;;;;;;1.45;0.38;;;14.50;66.90;;;;;;5022959;28;20270;-72
2023/01/18 05:04:40;;;;;;;2.22;0.25;;;14.40;66.90;;;;;;5020272;28;20249;-72
2023/01/18 05:07:06;;;;;;;0.00;0.00;;;14.50;66.90;;;;;;5023094;28;20267;-72
2023/01/18 05:09:33;;;;;;;1.75;0.28;;;14.40;66.70;;;;;;5031583;28;20277;-72
2023/01/18 05:11:58;;;;;;;0.10;0.10;;;14.50;66.50;;;;;;5025777;28;20190;-72
2023/01/18 05:14:24;;;;;;;0.20;0.20;;;14.50;66.30;;;;;;5021153;28;20669;-73
2023/01/18 05:16:49;;;;;;;0.77;0.20;;;14.50;66.60;;;;;;5022515;28;20259;-71
2023/01/18 05:19:15;;;;;;;1.83;0.30;;;14.50;66.50;;;;;;5030365;28;20184;-72
2023/01/18 05:21:41;;;;;;;0.10;0.10;;;14.60;66.40;;;;;;5024611;28;21172;-72
2023/01/18 05:24:06;;;;;;;0.20;0.20;;;14.50;66.30;;;;;;5025115;28;20565;-73
2023/01/18 05:26:32;;;;;;;2.78;0.20;;;14.60;66.40;;;;;;5024039;28;20187;-75
2023/01/18 05:28:58;;;;;;;0.38;0.20;;;14.60;66.20;;;;;;5030974;28;20767;-73
2023/01/18 05:31:24;;;;;;;0.13;0.10;;;14.60;66.20;;;;;;5023943;28;20245;-71
2023/01/18 05:33:50;;;;;;;0.08;0.08;;;14.60;66.10;;;;;;5022791;28;20703;-72
2023/01/18 05:36:16;;;;;;;0.08;0.08;;;14.70;66.00;;;;;;5023314;28;20183;-73
2023/01/18 05:38:42;;;;;;;0.20;0.15;;;14.70;66.10;;;;;;5024249;28;20263;-73
2023/01/18 05:41:07;;;;;;;0.75;0.20;;;14.70;65.90;;;;;;5031161;28;20721;-73
2023/01/18 05:43:33;;;;;;;0.40;0.13;;;14.70;66.00;;;;;;5022858;28;20216;-72
2023/01/18 05:45:59;;;;;;;0.20;0.20;;;14.70;66.10;;;;;;5023481;28;20254;-72
2023/01/18 05:48:25;;;;;;;0.00;0.00;;;14.70;66.00;;;;;;5027335;28;20267;-72
2023/01/18 05:50:51;;;;;;;0.20;0.20;;;14.80;66.20;;;;;;5026966;28;20212;-74
2023/01/18 05:53:19;;;;;;;0.20;0.20;;;14.70;66.10;;;;;;5027779;28;20203;-76
2023/01/18 05:55:59;;;;;;;1.90;0.20;;;14.70;65.90;;;;;;5027717;28;20637;-73
2023/01/18 05:58:26;;;;;;;1.00;0.30;;;14.70;66.10;;;;;;5027966;28;20176;-73
2023/01/18 06:00:53;;;;;;;1.85;0.10;;;14.70;65.90;;;;;;5027364;28;20636;-74
2023/01/18 06:03:19;;;;;;;1.45;0.10;;;14.70;65.80;;;;;;5027220;28;20207;-73
2023/01/18 06:05:45;;;;;;;0.10;0.10;;;14.70;66.00;;;;;;5027013;28;20211;-74
2023/01/18 06:08:11;;;;;;;12.52;0.52;;;14.80;66.10;;;;;;5026746;28;20703;-77
2023/01/18 06:10:37;;;;;;;0.15;0.15;;;14.80;66.00;;;;;;5027744;28;20317;-79
2023/01/18 06:13:04;;;;;;;0.40;0.30;;;14.80;66.20;;;;;;5027503;28;20172;-75
2023/01/18 06:15:30;;;;;;;1.42;0.10;;;14.80;66.30;;;;;;5024699;28;20188;-79
2023/01/18 06:17:56;;;;;;;1.10;0.20;;;14.80;66.30;;;;;;5021825;28;20177;-75
2023/01/18 06:20:22;;;;;;;4.70;0.25;;;14.70;66.50;;;;;;5040322;28;20559;-73
2023/01/18 06:22:48;;;;;;;3.92;0.50;;;14.70;66.50;;;;;;5031967;28;20207;-74
2023/01/18 06:25:13;;;;;;;0.30;0.30;;;14.70;66.50;;;;;;5028562;28;21002;-73
2023/01/18 06:27:39;;;;;;;0.20;0.20;;;14.70;66.50;;;;;;5027473;28;20180;-72
2023/01/18 06:30:09;;;;;;;0.10;0.10;;;14.80;66.70;;;;;;5025230;28;20238;-77
2023/01/18 06:32:35;;;;;;;0.88;0.50;;;14.70;66.60;;;;;;5026727;28;20184;-76
2023/01/18 06:35:01;;;;;;;2.42;0.10;;;14.80;66.80;;;;;;5025097;28;20172;-76
2023/01/18 06:37:26;;;;;;;1.95;0.20;;;14.80;66.80;;;;;;5033613;28;20238;-77
2023/01/18 06:39:52;;;;;;;0.30;0.30;;;14.80;66.90;;;;;;5040444;28;20183;-76
2023/01/18 06:42:18;;;;;;;2.92;0.20;;;14.80;67.10;;;;;;5044338;28;20248;-77
2023/01/18 06:44:43;;;;;;;0.30;0.20;;;14.80;67.10;;;;;;5038905;28;20202;-77
2023/01/18 06:47:09;;;;;;;0.30;0.30;;;14.80;67.20;;;;;;5027303;28;20180;-77
2023/01/18 06:49:35;;;;;;;0.30;0.30;;;15.00;66.90;;;;;;5027121;28;20214;-81
2023/01/18 06:52:00;;;;;;;0.75;0.40;;;15.10;66.50;;;;;;5027132;28;20184;-78
2023/01/18 06:54:26;;;;;;;1.25;0.28;;;15.20;66.40;;;;;;5032841;28;20195;-80
2023/01/18 06:56:52;;;;;;;3.22;0.30;;;15.30;66.30;;;;;;5044118;28;20187;-81
2023/01/18 06:59:18;;;;;;;0.30;0.30;;;15.30;66.10;;;;;;5030309;28;20188;-79
2023/01/18 07:01:43;;;;;;;0.75;0.10;;;15.40;66.00;;;;;;5028144;28;20176;-80
2023/01/18 07:04:09;;;;;;;0.20;0.20;;;15.50;66.00;;;;;;5031205;28;20267;-80
2023/01/18 07:06:35;;;;;;;0.30;0.10;;;15.60;65.90;;;;;;5025841;28;20582;-80
2023/01/18 07:09:01;;;;;;;0.20;0.10;;;15.70;65.50;;;;;;5027133;28;20692;-79
2023/01/18 07:11:27;;;;;;;0.70;0.55;;;15.80;65.20;;;;;;5025484;28;20618;-79
2023/01/18 07:13:53;;;;;;;2.88;0.40;;;15.80;65.20;;;;;;5025402;28;20181;-79
2023/01/18 07:16:19;;;;;;;2.03;0.30;;;15.80;65.00;;;;;;5025736;28;20943;-73
2023/01/18 07:18:47;;;;;;;0.35;0.35;;;15.90;64.80;;;;;;5025954;28;20172;-72
2023/01/18 07:21:14;;;;;;;0.30;0.30;;;15.90;64.70;;;;;;5025402;28;20184;-72
